sensor_id;sensor_type;location;lat;lon;timestamp;pressure;altitude;pressure_sealevel;temperature;humidity
66547;BME280;53400;50.364;14.874;2023-12-20T00:01:57;98262.66;;;3.72;100.00
66547;BME280;53400;50.364;14.874;2023-12-20T00:04:24;98267.16;;;3.58;100.00
66547;BME280;53400;50.364;14.874;2023-12-20T00:06:50;98266.53;;;3.56;100.00
66547;BME280;53400;50.364;14.874;2023-12-20T00:09:17;98267.34;;;3.63;100.00
66547;BME280;53400;50.364;14.874;2023-12-20T00:11:43;98268.00;;;3.45;100.00
66547;BME280;53400;50.364;14.874;2023-12-20T00:14:09;98261.66;;;3.59;100.00
66547;BME280;53400;50.364;14.874;2023-12-20T00:16:35;98264.72;;;3.56;100.00
66547;BME280;53400;50.364;14.874;2023-12-20T00:19:01;98263.91;;;3.56;100.00
66547;BME280;53400;50.364;14.874;2023-12-20T00:21:30;98255.41;;;3.47;100.00
66547;BME280;53400;50.364;14.874;2023-12-20T00:23:55;98255.78;;;3.51;100.00
66547;BME280;53400;50.364;14.874;2023-12-20T00:26:22;98253.56;;;3.48;100.00
66547;BME280;53400;50.364;14.874;2023-12-20T00:28:47;98245.63;;;3.41;100.00
66547;BME280;53400;50.364;14.874;2023-12-20T00:31:14;98242.38;;;3.39;100.00
66547;BME280;53400;50.364;14.874;2023-12-20T00:33:40;98246.25;;;3.30;100.00
66547;BME280;53400;50.364;14.874;2023-12-20T00:36:09;98243.22;;;3.33;100.00
66547;BME280;53400;50.364;14.874;2023-12-20T00:38:39;98235.06;;;3.28;100.00
66547;BME280;53400;50.364;14.874;2023-12-20T00:41:07;98236.88;;;3.34;100.00
66547;BME280;53400;50.364;14.874;2023-12-20T00:43:33;98227.16;;;3.21;100.00
66547;BME280;53400;50.364;14.874;2023-12-20T00:45:59;98224.09;;;3.17;100.00
66547;BME280;53400;50.364;14.874;2023-12-20T00:48:25;98219.41;;;3.19;100.00
66547;BME280;53400;50.364;14.874;2023-12-20T00:50:53;98224.28;;;3.16;100.00
66547;BME280;53400;50.364;14.874;2023-12-20T00:53:19;98232.06;;;3.11;100.00
66547;BME280;53400;50.364;14.874;2023-12-20T00:55:46;98223.50;;;3.09;100.00
66547;BME280;53400;50.364;14.874;2023-12-20T00:58:12;98226.75;;;3.17;100.00
66547;BME280;53400;50.364;14.874;2023-12-20T01:00:41;98225.72;;;3.18;100.00
66547;BME280;53400;50.364;14.874;2023-12-20T01:03:08;98221.06;;;3.01;100.00
66547;BME280;53400;50.364;14.874;2023-12-20T01:05:34;98218.00;;;3.04;100.00
66547;BME280;53400;50.364;14.874;2023-12-20T01:08:00;98217.19;;;3.10;100.00
66547;BME280;53400;50.364;14.874;2023-12-20T01:10:28;98209.28;;;3.03;100.00
66547;BME280;53400;50.364;14.874;2023-12-20T01:12:59;98203.53;;;3.19;100.00
66547;BME280;53400;50.364;14.874;2023-12-20T01:15:25;98199.69;;;3.09;100.00
66547;BME280;53400;50.364;14.874;2023-12-20T01:17:51;98194.19;;;3.17;100.00
66547;BME280;53400;50.364;14.874;2023-12-20T01:20:18;98185.47;;;3.03;100.00
66547;BME280;53400;50.364;14.874;2023-12-20T01:22:45;98190.53;;;3.11;100.00
66547;BME280;53400;50.364;14.874;2023-12-20T01:25:12;98187.25;;;3.16;100.00
66547;BME280;53400;50.364;14.874;2023-12-20T01:27:38;98182.75;;;3.30;100.00
66547;BME280;53400;50.364;14.874;2023-12-20T01:30:07;98176.13;;;3.52;100.00
66547;BME280;53400;50.364;14.874;2023-12-20T01:32:33;98178.22;;;3.37;100.00
66547;BME280;53400;50.364;14.874;2023-12-20T01:34:59;98178.25;;;3.30;100.00
66547;BME280;53400;50.364;14.874;2023-12-20T01:37:25;98179.47;;;3.41;100.00
66547;BME280;53400;50.364;14.874;2023-12-20T01:39:52;98176.22;;;3.32;100.00
66547;BME280;53400;50.364;14.874;2023-12-20T01:42:18;98165.81;;;3.37;100.00
66547;BME280;53400;50.364;14.874;2023-12-20T01:44:45;98149.63;;;3.65;100.00
66547;BME280;53400;50.364;14.874;2023-12-20T01:47:12;98148.63;;;3.60;100.00
66547;BME280;53400;50.364;14.874;2023-12-20T01:49:39;98134.31;;;3.16;100.00
66547;BME280;53400;50.364;14.874;2023-12-20T01:52:05;98125.13;;;3.32;100.00
66547;BME280;53400;50.364;14.874;2023-12-20T01:54:32;98143.66;;;3.25;100.00
66547;BME280;53400;50.364;14.874;2023-12-20T01:56:59;98136.69;;;3.44;100.00
66547;BME280;53400;50.364;14.874;2023-12-20T01:59:26;98139.66;;;3.09;100.00
66547;BME280;53400;50.364;14.874;2023-12-20T02:01:51;98141.50;;;3.02;100.00
66547;BME280;53400;50.364;14.874;2023-12-20T02:04:19;98145.16;;;3.01;100.00
66547;BME280;53400;50.364;14.874;2023-12-20T02:06:46;98139.69;;;2.96;100.00
66547;BME280;53400;50.364;14.874;2023-12-20T02:09:12;98133.41;;;2.90;100.00
66547;BME280;53400;50.364;14.874;2023-12-20T02:11:38;98139.47;;;2.97;100.00
66547;BME280;53400;50.364;14.874;2023-12-20T02:14:05;98138.25;;;3.00;100.00
66547;BME280;53400;50.364;14.874;2023-12-20T02:16:31;98139.28;;;2.99;100.00
66547;BME280;53400;50.364;14.874;2023-12-20T02:18:57;98129.13;;;2.96;100.00
66547;BME280;53400;50.364;14.874;2023-12-20T02:21:31;98130.97;;;2.95;100.00
66547;BME280;53400;50.364;14.874;2023-12-20T02:24:02;98121.59;;;2.93;100.00
66547;BME280;53400;50.364;14.874;2023-12-20T02:26:28;98112.00;;;3.05;100.00
66547;BME280;53400;50.364;14.874;2023-12-20T02:28:58;98112.56;;;3.07;100.00
66547;BME280;53400;50.364;14.874;2023-12-20T02:31:25;98114.63;;;3.05;100.00
66547;BME280;53400;50.364;14.874;2023-12-20T02:33:51;98110.34;;;3.11;100.00
66547;BME280;53400;50.364;14.874;2023-12-20T02:36:17;98112.97;;;3.17;100.00
66547;BME280;53400;50.364;14.874;2023-12-20T02:38:44;98113.41;;;3.08;100.00
66547;BME280;53400;50.364;14.874;2023-12-20T02:41:10;98115.84;;;3.09;100.00
66547;BME280;53400;50.364;14.874;2023-12-20T02:43:37;98110.72;;;3.21;100.00
66547;BME280;53400;50.364;14.874;2023-12-20T02:46:03;98111.94;;;3.18;100.00
66547;BME280;53400;50.364;14.874;2023-12-20T02:48:29;98109.34;;;3.05;100.00
66547;BME280;53400;50.364;14.874;2023-12-20T02:50:55;98112.00;;;3.05;100.00
66547;BME280;53400;50.364;14.874;2023-12-20T02:53:21;98114.97;;;3.22;100.00
66547;BME280;53400;50.364;14.874;2023-12-20T02:55:48;98123.38;;;3.06;100.00
66547;BME280;53400;50.364;14.874;2023-12-20T02:58:15;98123.38;;;3.06;100.00
66547;BME280;53400;50.364;14.874;2023-12-20T03:00:40;98115.63;;;3.17;100.00
66547;BME280;53400;50.364;14.874;2023-12-20T03:03:07;98122.19;;;3.02;100.00
66547;BME280;53400;50.364;14.874;2023-12-20T03:05:33;98123.81;;;3.03;100.00
66547;BME280;53400;50.364;14.874;2023-12-20T03:08:00;98128.25;;;3.09;100.00
66547;BME280;53400;50.364;14.874;2023-12-20T03:10:25;98112.81;;;3.06;100.00
66547;BME280;53400;50.364;14.874;2023-12-20T03:12:53;98113.84;;;3.05;100.00
66547;BME280;53400;50.364;14.874;2023-12-20T03:15:24;98112.84;;;2.99;100.00
66547;BME280;53400;50.364;14.874;2023-12-20T03:17:50;98121.22;;;2.89;100.00
66547;BME280;53400;50.364;14.874;2023-12-20T03:20:16;98112.03;;;2.85;100.00
66547;BME280;53400;50.364;14.874;2023-12-20T03:22:43;98114.91;;;2.84;100.00
66547;BME280;53400;50.364;14.874;2023-12-20T03:25:08;98117.56;;;2.84;100.00
66547;BME280;53400;50.364;14.874;2023-12-20T03:27:37;98115.28;;;2.94;100.00
66547;BME280;53400;50.364;14.874;2023-12-20T03:30:05;98107.97;;;2.96;100.00
66547;BME280;53400;50.364;14.874;2023-12-20T03:32:32;98100.84;;;2.90;100.00
66547;BME280;53400;50.364;14.874;2023-12-20T03:34:58;98112.84;;;2.92;100.00
66547;BME280;53400;50.364;14.874;2023-12-20T03:37:24;98114.25;;;2.95;100.00
66547;BME280;53400;50.364;14.874;2023-12-20T03:39:50;98109.16;;;3.00;100.00
66547;BME280;53400;50.364;14.874;2023-12-20T03:42:16;98109.38;;;2.92;100.00
66547;BME280;53400;50.364;14.874;2023-12-20T03:44:42;98118.78;;;2.81;100.00
66547;BME280;53400;50.364;14.874;2023-12-20T03:47:09;98108.19;;;2.88;100.00
66547;BME280;53400;50.364;14.874;2023-12-20T03:49:40;98108.34;;;2.99;100.00
66547;BME280;53400;50.364;14.874;2023-12-20T03:52:06;98110.22;;;2.92;100.00
66547;BME280;53400;50.364;14.874;2023-12-20T03:54:32;98108.81;;;2.76;100.00
66547;BME280;53400;50.364;14.874;2023-12-20T03:56:58;98114.09;;;2.90;100.00
66547;BME280;53400;50.364;14.874;2023-12-20T03:59:24;98106.34;;;2.82;100.00
66547;BME280;53400;50.364;14.874;2023-12-20T04:01:50;98106.75;;;2.85;100.00
66547;BME280;53400;50.364;14.874;2023-12-20T04:04:17;98110.03;;;2.81;100.00
66547;BME280;53400;50.364;14.874;2023-12-20T04:06:43;98115.72;;;2.84;100.00
66547;BME280;53400;50.364;14.874;2023-12-20T04:09:09;98101.44;;;2.92;100.00
66547;BME280;53400;50.364;14.874;2023-12-20T04:11:36;98102.84;;;2.94;100.00
66547;BME280;53400;50.364;14.874;2023-12-20T04:14:02;98095.34;;;2.91;100.00
66547;BME280;53400;50.364;14.874;2023-12-20T04:16:28;98105.13;;;2.84;100.00
66547;BME280;53400;50.364;14.874;2023-12-20T04:18:54;98104.28;;;2.97;100.00
66547;BME280;53400;50.364;14.874;2023-12-20T04:21:22;98112.59;;;3.01;100.00
66547;BME280;53400;50.364;14.874;2023-12-20T04:23:47;98112.84;;;2.92;100.00
66547;BME280;53400;50.364;14.874;2023-12-20T04:26:14;98111.84;;;2.87;100.00
66547;BME280;53400;50.364;14.874;2023-12-20T04:28:39;98112.41;;;3.02;100.00
66547;BME280;53400;50.364;14.874;2023-12-20T04:31:06;98118.94;;;2.93;100.00
66547;BME280;53400;50.364;14.874;2023-12-20T04:33:32;98119.72;;;3.07;100.00
66547;BME280;53400;50.364;14.874;2023-12-20T04:35:58;98122.19;;;2.95;100.00
66547;BME280;53400;50.364;14.874;2023-12-20T04:38:27;98128.69;;;2.99;100.00
66547;BME280;53400;50.364;14.874;2023-12-20T04:40:53;98126.28;;;2.91;100.00
66547;BME280;53400;50.364;14.874;2023-12-20T04:43:18;98123.59;;;2.97;100.00
66547;BME280;53400;50.364;14.874;2023-12-20T04:45:44;98119.53;;;2.95;100.00
66547;BME280;53400;50.364;14.874;2023-12-20T04:48:10;98113.66;;;2.93;100.00
66547;BME280;53400;50.364;14.874;2023-12-20T04:50:36;98115.88;;;2.96;100.00
66547;BME280;53400;50.364;14.874;2023-12-20T04:53:03;98113.84;;;2.91;100.00
66547;BME280;53400;50.364;14.874;2023-12-20T04:55:31;98112.84;;;2.92;100.00
66547;BME280;53400;50.364;14.874;2023-12-20T04:57:56;98106.69;;;3.05;100.00
66547;BME280;53400;50.364;14.874;2023-12-20T05:00:23;98112.03;;;2.98;100.00
66547;BME280;53400;50.364;14.874;2023-12-20T05:02:49;98105.91;;;2.98;100.00
66547;BME280;53400;50.364;14.874;2023-12-20T05:05:15;98106.09;;;3.03;100.00
66547;BME280;53400;50.364;14.874;2023-12-20T05:07:43;98113.28;;;2.89;100.00
66547;BME280;53400;50.364;14.874;2023-12-20T05:10:10;98114.84;;;3.04;100.00
66547;BME280;53400;50.364;14.874;2023-12-20T05:12:38;98105.31;;;2.96;100.00
66547;BME280;53400;50.364;14.874;2023-12-20T05:15:06;98107.56;;;2.92;100.00
66547;BME280;53400;50.364;14.874;2023-12-20T05:17:33;98126.06;;;2.99;100.00
66547;BME280;53400;50.364;14.874;2023-12-20T05:20:00;98123.19;;;3.01;100.00
66547;BME280;53400;50.364;14.874;2023-12-20T05:22:26;98120.56;;;2.94;100.00
66547;BME280;53400;50.364;14.874;2023-12-20T05:24:53;98119.75;;;2.93;100.00
66547;BME280;53400;50.364;14.874;2023-12-20T05:27:19;98123.25;;;2.87;100.00
66547;BME280;53400;50.364;14.874;2023-12-20T05:29:48;98131.97;;;2.88;100.00
66547;BME280;53400;50.364;14.874;2023-12-20T05:32:14;98130.53;;;2.92;100.00
66547;BME280;53400;50.364;14.874;2023-12-20T05:34:41;98130.38;;;2.87;100.00
66547;BME280;53400;50.364;14.874;2023-12-20T05:37:07;98129.16;;;2.89;100.00
66547;BME280;53400;50.364;14.874;2023-12-20T05:39:33;98124.25;;;2.93;100.00
66547;BME280;53400;50.364;14.874;2023-12-20T05:41:59;98132.75;;;2.95;100.00
66547;BME280;53400;50.364;14.874;2023-12-20T05:44:25;98133.19;;;2.92;100.00
66547;BME280;53400;50.364;14.874;2023-12-20T05:46:55;98143.34;;;2.95;100.00
66547;BME280;53400;50.364;14.874;2023-12-20T05:49:22;98134.59;;;2.94;100.00
66547;BME280;53400;50.364;14.874;2023-12-20T05:51:48;98127.31;;;2.90;100.00
66547;BME280;53400;50.364;14.874;2023-12-20T05:54:14;98132.97;;;2.93;100.00
66547;BME280;53400;50.364;14.874;2023-12-20T05:56:40;98138.25;;;3.00;100.00
66547;BME280;53400;50.364;14.874;2023-12-20T05:59:07;98132.38;;;2.91;100.00
66547;BME280;53400;50.364;14.874;2023-12-20T06:01:33;98136.84;;;2.91;100.00
66547;BME280;53400;50.364;14.874;2023-12-20T06:04:01;98137.25;;;2.94;100.00
66547;BME280;53400;50.364;14.874;2023-12-20T06:06:28;98129.50;;;2.99;100.00
66547;BME280;53400;50.364;14.874;2023-12-20T06:08:55;98129.50;;;2.99;100.00
66547;BME280;53400;50.364;14.874;2023-12-20T06:11:21;98119.75;;;2.93;100.00
66547;BME280;53400;50.364;14.874;2023-12-20T06:13:47;98129.72;;;2.91;100.00
66547;BME280;53400;50.364;14.874;2023-12-20T06:16:14;98130.38;;;2.80;100.00
66547;BME280;53400;50.364;14.874;2023-12-20T06:18:41;98124.66;;;2.76;100.00
66547;BME280;53400;50.364;14.874;2023-12-20T06:21:09;98131.59;;;2.78;100.00
66547;BME280;53400;50.364;14.874;2023-12-20T06:23:42;98129.16;;;2.76;100.00
66547;BME280;53400;50.364;14.874;2023-12-20T06:26:08;98141.78;;;2.81;100.00
66547;BME280;53400;50.364;14.874;2023-12-20T06:28:34;98130.16;;;2.82;100.00
66547;BME280;53400;50.364;14.874;2023-12-20T06:31:00;98137.69;;;2.78;100.00
66547;BME280;53400;50.364;14.874;2023-12-20T06:33:26;98137.09;;;2.69;100.00
66547;BME280;53400;50.364;14.874;2023-12-20T06:35:53;98129.16;;;2.76;100.00
66547;BME280;53400;50.364;14.874;2023-12-20T06:38:21;98127.72;;;2.73;100.00
66547;BME280;53400;50.364;14.874;2023-12-20T06:40:47;98143.41;;;2.68;100.00
66547;BME280;53400;50.364;14.874;2023-12-20T06:43:13;98146.66;;;2.70;100.00
66547;BME280;53400;50.364;14.874;2023-12-20T06:45:39;98157.22;;;2.70;100.00
66547;BME280;53400;50.364;14.874;2023-12-20T06:48:07;98154.81;;;2.62;100.00
66547;BME280;53400;50.364;14.874;2023-12-20T06:50:33;98148.88;;;2.73;100.00
66547;BME280;53400;50.364;14.874;2023-12-20T06:53:00;98162.50;;;2.70;100.00
66547;BME280;53400;50.364;14.874;2023-12-20T06:55:34;98162.72;;;2.69;100.00
66547;BME280;53400;50.364;14.874;2023-12-20T06:58:01;98168.41;;;2.72;100.00
66547;BME280;53400;50.364;14.874;2023-12-20T07:00:28;98165.59;;;2.74;100.00
66547;BME280;53400;50.364;14.874;2023-12-20T07:02:54;98175.75;;;2.77;100.00
66547;BME280;53400;50.364;14.874;2023-12-20T07:05:21;98180.84;;;2.72;100.00
66547;BME280;53400;50.364;14.874;2023-12-20T07:07:47;98174.94;;;2.70;100.00
66547;BME280;53400;50.364;14.874;2023-12-20T07:10:13;98186.53;;;2.75;100.00
66547;BME280;53400;50.364;14.874;2023-12-20T07:12:41;98187.75;;;2.66;100.00
66547;BME280;53400;50.364;14.874;2023-12-20T07:15:08;98189.59;;;2.66;100.00
66547;BME280;53400;50.364;14.874;2023-12-20T07:17:35;98186.53;;;2.69;100.00
66547;BME280;53400;50.364;14.874;2023-12-20T07:20:01;98192.41;;;2.64;100.00
66547;BME280;53400;50.364;14.874;2023-12-20T07:22:32;98194.66;;;2.61;100.00
66547;BME280;53400;50.364;14.874;2023-12-20T07:24:58;98209.31;;;2.63;100.00
66547;BME280;53400;50.364;14.874;2023-12-20T07:27:25;98219.88;;;2.63;100.00
66547;BME280;53400;50.364;14.874;2023-12-20T07:29:53;98207.69;;;2.69;100.00
66547;BME280;53400;50.364;14.874;2023-12-20T07:32:19;98210.75;;;2.66;100.00
66547;BME280;53400;50.364;14.874;2023-12-20T07:34:47;98198.94;;;2.62;100.00
66547;BME280;53400;50.364;14.874;2023-12-20T07:37:14;98205.66;;;2.58;100.00
66547;BME280;53400;50.364;14.874;2023-12-20T07:39:40;98218.44;;;2.67;100.00
66547;BME280;53400;50.364;14.874;2023-12-20T07:42:06;98227.19;;;2.61;100.00
66547;BME280;53400;50.364;14.874;2023-12-20T07:44:33;98229.44;;;2.64;100.00
66547;BME280;53400;50.364;14.874;2023-12-20T07:47:01;98223.31;;;2.70;100.00
66547;BME280;53400;50.364;14.874;2023-12-20T07:49:27;98219.88;;;2.70;100.00
66547;BME280;53400;50.364;14.874;2023-12-20T07:51:53;98225.41;;;2.62;100.00
66547;BME280;53400;50.364;14.874;2023-12-20T07:54:19;98229.25;;;2.66;100.00
66547;BME280;53400;50.364;14.874;2023-12-20T07:56:46;98232.50;;;2.68;100.00
66547;BME280;53400;50.364;14.874;2023-12-20T07:59:13;98237.59;;;2.63;100.00
66547;BME280;53400;50.364;14.874;2023-12-20T08:01:49;98231.25;;;2.70;100.00
66547;BME280;53400;50.364;14.874;2023-12-20T08:04:19;98222.53;;;2.70;100.00
66547;BME280;53400;50.364;14.874;2023-12-20T08:06:46;98220.50;;;2.65;100.00
66547;BME280;53400;50.364;14.874;2023-12-20T08:09:17;98212.75;;;2.64;100.00
66547;BME280;53400;50.364;14.874;2023-12-20T08:11:45;98220.69;;;2.64;100.00
66547;BME280;53400;50.364;14.874;2023-12-20T08:14:10;98212.56;;;2.65;100.00
66547;BME280;53400;50.364;14.874;2023-12-20T08:16:38;98212.16;;;2.68;100.00
66547;BME280;53400;50.364;14.874;2023-12-20T08:19:06;98217.63;;;2.67;100.00
66547;BME280;53400;50.364;14.874;2023-12-20T08:21:35;98219.47;;;2.66;100.00
66547;BME280;53400;50.364;14.874;2023-12-20T08:24:04;98212.34;;;2.67;100.00
66547;BME280;53400;50.364;14.874;2023-12-20T08:26:31;98224.97;;;2.71;100.00
66547;BME280;53400;50.364;14.874;2023-12-20T08:28:57;98222.75;;;2.68;100.00
66547;BME280;53400;50.364;14.874;2023-12-20T08:31:23;98218.66;;;2.72;100.00
66547;BME280;53400;50.364;14.874;2023-12-20T08:33:49;98228.63;;;2.70;100.00
66547;BME280;53400;50.364;14.874;2023-12-20T08:36:16;98222.75;;;2.68;100.00
66547;BME280;53400;50.364;14.874;2023-12-20T08:38:47;98226.81;;;2.78;100.00
66547;BME280;53400;50.364;14.874;2023-12-20T08:41:13;98225.78;;;2.79;100.00
66547;BME280;53400;50.364;14.874;2023-12-20T08:43:39;98222.31;;;2.78;100.00
66547;BME280;53400;50.364;14.874;2023-12-20T08:46:13;98225.78;;;2.79;100.00
66547;BME280;53400;50.364;14.874;2023-12-20T08:48:39;98226.41;;;2.81;100.00
66547;BME280;53400;50.364;14.874;2023-12-20T08:51:05;98224.34;;;2.83;100.00
66547;BME280;53400;50.364;14.874;2023-12-20T08:53:35;98231.88;;;2.79;100.00
66547;BME280;53400;50.364;14.874;2023-12-20T08:56:04;98227.81;;;2.76;100.00
66547;BME280;53400;50.364;14.874;2023-12-20T08:58:30;98225.75;;;3.05;100.00
66547;BME280;53400;50.364;14.874;2023-12-20T09:00:56;98235.75;;;2.90;100.00
66547;BME280;53400;50.364;14.874;2023-12-20T09:03:23;98230.47;;;2.90;100.00
66547;BME280;53400;50.364;14.874;2023-12-20T09:05:49;98233.31;;;2.82;100.00
66547;BME280;53400;50.364;14.874;2023-12-20T09:08:15;98226.56;;;2.99;100.00
66547;BME280;53400;50.364;14.874;2023-12-20T09:10:41;98227.00;;;2.96;100.00
66547;BME280;53400;50.364;14.874;2023-12-20T09:13:11;98226.38;;;2.94;100.00
66547;BME280;53400;50.364;14.874;2023-12-20T09:15:37;98236.75;;;2.95;100.00
66547;BME280;53400;50.364;14.874;2023-12-20T09:18:03;98228.00;;;2.95;100.00
66547;BME280;53400;50.364;14.874;2023-12-20T09:20:30;98234.13;;;2.95;100.00
66547;BME280;53400;50.364;14.874;2023-12-20T09:22:56;98221.69;;;2.96;100.00
66547;BME280;53400;50.364;14.874;2023-12-20T09:25:22;98216.41;;;2.96;100.00
66547;BME280;53400;50.364;14.874;2023-12-20T09:27:49;98227.19;;;3.08;100.00
66547;BME280;53400;50.364;14.874;2023-12-20T09:30:16;98220.44;;;3.18;100.00
66547;BME280;53400;50.364;14.874;2023-12-20T09:32:42;98234.47;;;3.32;100.00
66547;BME280;53400;50.364;14.874;2023-12-20T09:35:09;98218.31;;;3.40;100.00
66547;BME280;53400;50.364;14.874;2023-12-20T09:37:36;98226.22;;;3.60;100.00
66547;BME280;53400;50.364;14.874;2023-12-20T09:40:02;98230.06;;;3.64;100.00
66547;BME280;53400;50.364;14.874;2023-12-20T09:42:36;98234.94;;;3.67;100.00
66547;BME280;53400;50.364;14.874;2023-12-20T09:45:08;98229.41;;;3.76;100.00
66547;BME280;53400;50.364;14.874;2023-12-20T09:47:35;98228.28;;;3.52;100.00
66547;BME280;53400;50.364;14.874;2023-12-20T09:50:02;98236.84;;;3.40;100.00
66547;BME280;53400;50.364;14.874;2023-12-20T09:52:28;98226.72;;;3.31;100.00
66547;BME280;53400;50.364;14.874;2023-12-20T09:54:55;98223.81;;;3.45;100.00
66547;BME280;53400;50.364;14.874;2023-12-20T09:57:22;98233.81;;;3.37;100.00
66547;BME280;53400;50.364;14.874;2023-12-20T09:59:49;98237.91;;;3.33;100.00
66547;BME280;53400;50.364;14.874;2023-12-20T10:02:18;98250.94;;;3.41;100.00
66547;BME280;53400;50.364;14.874;2023-12-20T10:04:47;98254.13;;;3.63;100.00
66547;BME280;53400;50.364;14.874;2023-12-20T10:07:14;98247.44;;;3.54;100.00
66547;BME280;53400;50.364;14.874;2023-12-20T10:09:40;98247.19;;;3.55;100.00
66547;BME280;53400;50.364;14.874;2023-12-20T10:12:08;98241.50;;;3.58;100.00
66547;BME280;53400;50.364;14.874;2023-12-20T10:14:34;98244.78;;;3.54;100.00
66547;BME280;53400;50.364;14.874;2023-12-20T10:17:02;98242.88;;;3.67;100.00
66547;BME280;53400;50.364;14.874;2023-12-20T10:19:29;98233.72;;;3.70;100.00
66547;BME280;53400;50.364;14.874;2023-12-20T10:22:15;98227.78;;;3.75;100.00
66547;BME280;53400;50.364;14.874;2023-12-20T10:24:56;98214.72;;;3.80;100.00
66547;BME280;53400;50.364;14.874;2023-12-20T10:27:23;98221.47;;;3.76;100.00
66547;BME280;53400;50.364;14.874;2023-12-20T10:29:58;98224.69;;;3.84;100.00
66547;BME280;53400;50.364;14.874;2023-12-20T10:32:25;98220.31;;;4.03;100.00
66547;BME280;53400;50.364;14.874;2023-12-20T10:34:53;98217.75;;;4.22;100.00
66547;BME280;53400;50.364;14.874;2023-12-20T10:37:21;98223.66;;;4.24;100.00
66547;BME280;53400;50.364;14.874;2023-12-20T10:39:51;98223.38;;;4.32;100.00
66547;BME280;53400;50.364;14.874;2023-12-20T10:42:28;98213.06;;;4.24;100.00
66547;BME280;53400;50.364;14.874;2023-12-20T10:45:16;98198.16;;;4.23;100.00
66547;BME280;53400;50.364;14.874;2023-12-20T10:47:46;98193.50;;;4.18;100.00
66547;BME280;53400;50.364;14.874;2023-12-20T10:50:12;98201.59;;;4.30;100.00
66547;BME280;53400;50.364;14.874;2023-12-20T10:52:40;98207.56;;;4.19;100.00
66547;BME280;53400;50.364;14.874;2023-12-20T10:55:08;98208.34;;;4.26;100.00
66547;BME280;53400;50.364;14.874;2023-12-20T10:57:36;98196.97;;;4.19;100.00
66547;BME280;53400;50.364;14.874;2023-12-20T11:00:03;98189.78;;;4.26;100.00
66547;BME280;53400;50.364;14.874;2023-12-20T11:02:32;98184.88;;;4.29;100.00
66547;BME280;53400;50.364;14.874;2023-12-20T11:05:04;98182.38;;;4.34;100.00
66547;BME280;53400;50.364;14.874;2023-12-20T11:07:40;98182.00;;;4.31;100.00
66547;BME280;53400;50.364;14.874;2023-12-20T11:10:16;98196.84;;;4.39;100.00
66547;BME280;53400;50.364;14.874;2023-12-20T11:12:50;98190.94;;;4.36;100.00
66547;BME280;53400;50.364;14.874;2023-12-20T11:15:18;98189.94;;;4.31;100.00
66547;BME280;53400;50.364;14.874;2023-12-20T11:17:45;98182.72;;;4.45;100.00
66547;BME280;53400;50.364;14.874;2023-12-20T11:20:12;98184.72;;;4.49;100.00
66547;BME280;53400;50.364;14.874;2023-12-20T11:22:54;98174.66;;;4.58;100.00
66547;BME280;53400;50.364;14.874;2023-12-20T11:25:21;98168.81;;;5.11;100.00
66547;BME280;53400;50.364;14.874;2023-12-20T11:28:08;98156.28;;;4.81;100.00
66547;BME280;53400;50.364;14.874;2023-12-20T11:30:51;98154.72;;;4.92;100.00
66547;BME280;53400;50.364;14.874;2023-12-20T11:33:30;98157.31;;;4.99;100.00
66547;BME280;53400;50.364;14.874;2023-12-20T11:36:02;98167.00;;;5.12;100.00
66547;BME280;53400;50.364;14.874;2023-12-20T11:38:37;98158.88;;;5.25;100.00
66547;BME280;53400;50.364;14.874;2023-12-20T11:41:46;98154.31;;;5.14;100.00
66547;BME280;53400;50.364;14.874;2023-12-20T11:44:17;98152.84;;;5.18;100.00
66547;BME280;53400;50.364;14.874;2023-12-20T11:46:44;98149.16;;;5.19;100.00
66547;BME280;53400;50.364;14.874;2023-12-20T11:49:10;98145.69;;;5.18;100.00
66547;BME280;53400;50.364;14.874;2023-12-20T11:51:40;98141.34;;;5.05;100.00
66547;BME280;53400;50.364;14.874;2023-12-20T11:54:08;98133.00;;;5.02;100.00
66547;BME280;53400;50.364;14.874;2023-12-20T11:56:35;98131.47;;;4.94;100.00
66547;BME280;53400;50.364;14.874;2023-12-20T11:59:01;98125.09;;;4.95;100.00
66547;BME280;53400;50.364;14.874;2023-12-20T12:01:27;98117.00;;;5.09;100.00
66547;BME280;53400;50.364;14.874;2023-12-20T12:04:02;98130.56;;;5.19;100.00
66547;BME280;53400;50.364;14.874;2023-12-20T12:06:29;98118.09;;;5.19;100.00
66547;BME280;53400;50.364;14.874;2023-12-20T12:08:54;98117.94;;;5.14;100.00
66547;BME280;53400;50.364;14.874;2023-12-20T12:11:23;98107.56;;;5.13;100.00
66547;BME280;53400;50.364;14.874;2023-12-20T12:13:49;98115.75;;;4.93;100.00
66547;BME280;53400;50.364;14.874;2023-12-20T12:16:17;98107.22;;;4.91;100.00
66547;BME280;53400;50.364;14.874;2023-12-20T12:18:43;98098.88;;;5.05;98.98
66547;BME280;53400;50.364;14.874;2023-12-20T12:21:09;98095.38;;;5.05;99.15
66547;BME280;53400;50.364;14.874;2023-12-20T12:23:35;98091.66;;;4.94;99.34
66547;BME280;53400;50.364;14.874;2023-12-20T12:26:03;98083.69;;;4.94;98.49
66547;BME280;53400;50.364;14.874;2023-12-20T12:28:31;98085.31;;;4.95;99.03
66547;BME280;53400;50.364;14.874;2023-12-20T12:30:58;98086.09;;;5.14;98.98
66547;BME280;53400;50.364;14.874;2023-12-20T12:33:24;98082.94;;;5.24;100.00
66547;BME280;53400;50.364;14.874;2023-12-20T12:35:51;98064.03;;;5.32;97.46
66547;BME280;53400;50.364;14.874;2023-12-20T12:38:20;98073.59;;;5.03;99.33
66547;BME280;53400;50.364;14.874;2023-12-20T12:40:46;98075.72;;;4.94;99.52
66547;BME280;53400;50.364;14.874;2023-12-20T12:43:12;98080.31;;;5.05;100.00
66547;BME280;53400;50.364;14.874;2023-12-20T12:45:40;98081.63;;;4.96;100.00
66547;BME280;53400;50.364;14.874;2023-12-20T12:48:07;98083.00;;;4.99;100.00
66547;BME280;53400;50.364;14.874;2023-12-20T12:50:33;98075.28;;;4.97;99.53
66547;BME280;53400;50.364;14.874;2023-12-20T12:52:59;98094.06;;;4.96;99.44